sensor_id;sensor_type;location;lat;lon;timestamp;pressure;altitude;pressure_sealevel;temperature;humidity
14885;BME280;7534;50.762;7.000;2023-02-19T00:01:43;88219.56;;;-143.16;85.59
14885;BME280;7534;50.762;7.000;2023-02-19T00:04:17;88245.81;;;-143.16;85.58
14885;BME280;7534;50.762;7.000;2023-02-19T00:06:45;88193.31;;;-143.16;85.37
14885;BME280;7534;50.762;7.000;2023-02-19T00:09:13;88290.22;;;-143.16;85.35
14885;BME280;7534;50.762;7.000;2023-02-19T00:11:40;88383.09;;;-143.16;85.34
14885;BME280;7534;50.762;7.000;2023-02-19T00:14:06;88219.56;;;-143.16;85.56
14885;BME280;7534;50.762;7.000;2023-02-19T00:16:38;88215.53;;;-143.16;85.15
14885;BME280;7534;50.762;7.000;2023-02-19T00:19:07;88506.22;;;-143.16;85.36
14885;BME280;7534;50.762;7.000;2023-02-19T00:21:33;88280.13;;;-143.16;85.54
14885;BME280;7534;50.762;7.000;2023-02-19T00:24:04;88272.06;;;-143.16;85.77
14885;BME280;7534;50.762;7.000;2023-02-19T00:26:33;88253.88;;;-143.16;85.84
14885;BME280;7534;50.762;7.000;2023-02-19T00:29:00;88257.91;;;-143.16;86.33
14885;BME280;7534;50.762;7.000;2023-02-19T00:31:31;88245.81;;;-143.16;86.59
14885;BME280;7534;50.762;7.000;2023-02-19T00:34:00;88270.03;;;-143.16;86.90
14885;BME280;7534;50.762;7.000;2023-02-19T00:36:28;88294.25;;;-143.16;87.40
14885;BME280;7534;50.762;7.000;2023-02-19T00:38:54;88163.03;;;-143.16;88.06
14885;BME280;7534;50.762;7.000;2023-02-19T00:41:21;88290.22;;;-143.16;89.00
14885;BME280;7534;50.762;7.000;2023-02-19T00:44:02;88314.44;;;-143.16;89.46
14885;BME280;7534;50.762;7.000;2023-02-19T00:46:36;88276.09;;;-143.16;89.62
14885;BME280;7534;50.762;7.000;2023-02-19T00:49:03;88334.63;;;-143.16;89.74
14885;BME280;7534;50.762;7.000;2023-02-19T00:51:34;88306.38;;;-143.16;89.94
14885;BME280;7534;50.762;7.000;2023-02-19T00:54:00;88348.75;;;-143.16;90.11
14885;BME280;7534;50.762;7.000;2023-02-19T00:56:27;88209.47;;;-143.16;90.05
14885;BME280;7534;50.762;7.000;2023-02-19T00:58:53;88229.66;;;-143.16;89.81
14885;BME280;7534;50.762;7.000;2023-02-19T01:01:19;88568.81;;;-143.16;89.86
14885;BME280;7534;50.762;7.000;2023-02-19T01:03:46;88318.47;;;-143.16;90.34
14885;BME280;7534;50.762;7.000;2023-02-19T01:06:15;88324.53;;;-143.16;90.71
14885;BME280;7534;50.762;7.000;2023-02-19T01:08:42;88344.72;;;-143.16;91.05
14885;BME280;7534;50.762;7.000;2023-02-19T01:11:09;88213.50;;;-143.16;91.46
14885;BME280;7534;50.762;7.000;2023-02-19T01:13:35;88536.50;;;-143.16;91.52
14885;BME280;7534;50.762;7.000;2023-02-19T01:16:12;88360.88;;;-143.16;91.21
14885;BME280;7534;50.762;7.000;2023-02-19T01:18:39;88451.72;;;-143.16;91.25
14885;BME280;7534;50.762;7.000;2023-02-19T01:21:08;88328.56;;;-143.16;90.81
14885;BME280;7534;50.762;7.000;2023-02-19T01:23:35;88223.59;;;-143.16;90.67
14885;BME280;7534;50.762;7.000;2023-02-19T01:26:12;88292.22;;;-143.16;90.50
14885;BME280;7534;50.762;7.000;2023-02-19T01:28:38;88490.06;;;-143.16;90.58
14885;BME280;7534;50.762;7.000;2023-02-19T01:31:07;88213.50;;;-143.16;90.41
14885;BME280;7534;50.762;7.000;2023-02-19T01:33:33;88419.41;;;-143.16;90.30
14885;BME280;7534;50.762;7.000;2023-02-19T01:36:03;88346.75;;;-143.16;90.18
14885;BME280;7534;50.762;7.000;2023-02-19T01:38:29;88266.00;;;-143.16;89.95
14885;BME280;7534;50.762;7.000;2023-02-19T01:41:02;88508.25;;;-143.16;89.94
14885;BME280;7534;50.762;7.000;2023-02-19T01:43:28;88290.22;;;-143.16;89.70
14885;BME280;7534;50.762;7.000;2023-02-19T01:45:55;88334.63;;;-143.16;89.39
14885;BME280;7534;50.762;7.000;2023-02-19T01:48:36;88266.00;;;-143.16;89.02
14885;BME280;7534;50.762;7.000;2023-02-19T01:51:10;88268.00;;;-143.16;88.74
14885;BME280;7534;50.762;7.000;2023-02-19T01:53:43;88274.06;;;-143.16;88.38
14885;BME280;7534;50.762;7.000;2023-02-19T01:56:12;88294.25;;;-143.16;87.94
14885;BME280;7534;50.762;7.000;2023-02-19T01:58:39;88344.72;;;-143.16;88.07
14885;BME280;7534;50.762;7.000;2023-02-19T02:01:07;88257.91;;;-143.16;88.16
14885;BME280;7534;50.762;7.000;2023-02-19T02:03:35;88185.25;;;-143.16;87.49
14885;BME280;7534;50.762;7.000;2023-02-19T02:06:30;88161.03;;;-143.16;87.13
14885;BME280;7534;50.762;7.000;2023-02-19T02:08:59;88197.34;;;-143.16;86.70
14885;BME280;7534;50.762;7.000;2023-02-19T02:11:51;88173.13;;;-143.16;86.32
14885;BME280;7534;50.762;7.000;2023-02-19T02:14:24;88471.91;;;-143.16;86.42
14885;BME280;7534;50.762;7.000;2023-02-19T02:17:12;88330.59;;;-143.16;86.03
14885;BME280;7534;50.762;7.000;2023-02-19T02:19:54;88320.50;;;-143.16;86.16
14885;BME280;7534;50.762;7.000;2023-02-19T02:22:29;88500.16;;;-143.16;86.05
14885;BME280;7534;50.762;7.000;2023-02-19T02:28:20;88266.00;;;-143.16;85.29
14885;BME280;7534;50.762;7.000;2023-02-19T02:30:53;88455.75;;;-143.16;84.94
14885;BME280;7534;50.762;7.000;2023-02-19T02:36:15;88272.06;;;-143.16;85.17
14885;BME280;7534;50.762;7.000;2023-02-19T02:38:45;88312.44;;;-143.16;85.45
14885;BME280;7534;50.762;7.000;2023-02-19T02:41:13;88177.16;;;-143.16;85.25
14885;BME280;7534;50.762;7.000;2023-02-19T02:43:39;88322.53;;;-143.16;84.43
14885;BME280;7534;50.762;7.000;2023-02-19T02:46:05;88326.56;;;-143.16;84.62
14885;BME280;7534;50.762;7.000;2023-02-19T02:48:56;88187.25;;;-143.16;84.62
14885;BME280;7534;50.762;7.000;2023-02-19T02:51:43;88467.88;;;-143.16;84.32
14885;BME280;7534;50.762;7.000;2023-02-19T02:54:22;88459.78;;;-143.16;84.05
14885;BME280;7534;50.762;7.000;2023-02-19T02:57:10;88266.00;;;-143.16;84.00
14885;BME280;7534;50.762;7.000;2023-02-19T02:59:41;88326.56;;;-143.16;83.65
14885;BME280;7534;50.762;7.000;2023-02-19T03:02:15;88346.75;;;-143.16;83.47
14885;BME280;7534;50.762;7.000;2023-02-19T03:05:19;88134.78;;;-143.16;83.30
14885;BME280;7534;50.762;7.000;2023-02-19T03:08:29;88308.38;;;-143.16;83.13
14885;BME280;7534;50.762;7.000;2023-02-19T03:11:03;88395.19;;;-143.16;82.39
14885;BME280;7534;50.762;7.000;2023-02-19T03:13:57;88286.19;;;-143.16;82.11
14885;BME280;7534;50.762;7.000;2023-02-19T03:16:47;88280.13;;;-143.16;82.62
14885;BME280;7534;50.762;7.000;2023-02-19T03:19:37;88286.19;;;-143.16;82.66
14885;BME280;7534;50.762;7.000;2023-02-19T03:22:16;88486.03;;;-143.16;82.93
14885;BME280;7534;50.762;7.000;2023-02-19T03:25:14;88284.16;;;-143.16;84.20
14885;BME280;7534;50.762;7.000;2023-02-19T03:28:06;88245.81;;;-143.16;85.29
14885;BME280;7534;50.762;7.000;2023-02-19T03:30:39;88328.56;;;-143.16;86.00
14885;BME280;7534;50.762;7.000;2023-02-19T03:33:16;88320.50;;;-143.16;86.91
14885;BME280;7534;50.762;7.000;2023-02-19T03:35:51;88318.47;;;-143.16;87.17
14885;BME280;7534;50.762;7.000;2023-02-19T03:38:27;88326.56;;;-143.16;87.60
14885;BME280;7534;50.762;7.000;2023-02-19T03:41:22;88340.69;;;-143.16;87.86
14885;BME280;7534;50.762;7.000;2023-02-19T03:44:38;88245.81;;;-143.16;88.18
14885;BME280;7534;50.762;7.000;2023-02-19T03:47:26;88179.19;;;-143.16;88.84
14885;BME280;7534;50.762;7.000;2023-02-19T03:50:20;88381.06;;;-143.16;88.95
14885;BME280;7534;50.762;7.000;2023-02-19T03:53:03;88342.72;;;-143.16;88.91
14885;BME280;7534;50.762;7.000;2023-02-19T03:56:08;88201.41;;;-143.16;89.60
14885;BME280;7534;50.762;7.000;2023-02-19T04:01:34;88469.88;;;-143.16;89.32
14885;BME280;7534;50.762;7.000;2023-02-19T04:04:21;88310.41;;;-143.16;89.24
14885;BME280;7534;50.762;7.000;2023-02-19T04:06:56;88350.78;;;-143.16;89.42
14885;BME280;7534;50.762;7.000;2023-02-19T04:09:28;88288.19;;;-143.16;88.87
14885;BME280;7534;50.762;7.000;2023-02-19T04:11:55;88451.72;;;-143.16;89.30
14885;BME280;7534;50.762;7.000;2023-02-19T04:14:41;88282.16;;;-143.16;88.94
14885;BME280;7534;50.762;7.000;2023-02-19T04:17:36;88375.00;;;-143.16;88.79
14885;BME280;7534;50.762;7.000;2023-02-19T04:20:07;88389.13;;;-143.16;88.20
14885;BME280;7534;50.762;7.000;2023-02-19T04:22:36;88385.09;;;-143.16;88.19
14885;BME280;7534;50.762;7.000;2023-02-19T04:25:03;88314.44;;;-143.16;88.51
14885;BME280;7534;50.762;7.000;2023-02-19T04:27:29;88328.56;;;-143.16;88.00
14885;BME280;7534;50.762;7.000;2023-02-19T04:29:56;88284.16;;;-143.16;88.30
14885;BME280;7534;50.762;7.000;2023-02-19T04:32:22;88251.88;;;-143.16;87.43
14885;BME280;7534;50.762;7.000;2023-02-19T04:34:47;88274.06;;;-143.16;87.52
14885;BME280;7534;50.762;7.000;2023-02-19T04:37:13;88241.78;;;-143.16;87.36
14885;BME280;7534;50.762;7.000;2023-02-19T04:39:39;88366.94;;;-143.16;86.96
14885;BME280;7534;50.762;7.000;2023-02-19T04:42:05;88320.50;;;-143.16;87.18
14885;BME280;7534;50.762;7.000;2023-02-19T04:44:32;88370.97;;;-143.16;86.78
14885;BME280;7534;50.762;7.000;2023-02-19T04:46:58;88362.91;;;-143.16;87.06
14885;BME280;7534;50.762;7.000;2023-02-19T04:49:23;88286.19;;;-143.16;86.68
14885;BME280;7534;50.762;7.000;2023-02-19T04:51:49;88344.72;;;-143.16;86.42
14885;BME280;7534;50.762;7.000;2023-02-19T04:54:14;88320.50;;;-143.16;86.19
14885;BME280;7534;50.762;7.000;2023-02-19T04:56:40;88508.25;;;-143.16;86.23
14885;BME280;7534;50.762;7.000;2023-02-19T04:59:06;88282.16;;;-143.16;84.80
14885;BME280;7534;50.762;7.000;2023-02-19T05:01:31;88393.19;;;-143.16;84.54
14885;BME280;7534;50.762;7.000;2023-02-19T05:03:57;88288.19;;;-143.16;83.42
14885;BME280;7534;50.762;7.000;2023-02-19T05:06:23;88306.38;;;-143.16;83.23
14885;BME280;7534;50.762;7.000;2023-02-19T05:08:49;88237.72;;;-143.16;82.30
14885;BME280;7534;50.762;7.000;2023-02-19T05:11:14;88278.09;;;-143.16;82.11
14885;BME280;7534;50.762;7.000;2023-02-19T05:13:40;88352.81;;;-143.16;82.57
14885;BME280;7534;50.762;7.000;2023-02-19T05:16:10;88358.84;;;-143.16;82.58
14885;BME280;7534;50.762;7.000;2023-02-19T05:18:39;88292.22;;;-143.16;82.66
14885;BME280;7534;50.762;7.000;2023-02-19T05:21:05;88484.03;;;-143.16;82.82
14885;BME280;7534;50.762;7.000;2023-02-19T05:23:31;88322.53;;;-143.16;82.99
14885;BME280;7534;50.762;7.000;2023-02-19T05:25:56;88290.22;;;-143.16;83.35
14885;BME280;7534;50.762;7.000;2023-02-19T05:28:23;88344.72;;;-143.16;83.81
14885;BME280;7534;50.762;7.000;2023-02-19T05:30:55;88383.09;;;-143.16;83.89
14885;BME280;7534;50.762;7.000;2023-02-19T05:33:24;88387.13;;;-143.16;83.29
14885;BME280;7534;50.762;7.000;2023-02-19T05:35:54;88383.09;;;-143.16;83.15
14885;BME280;7534;50.762;7.000;2023-02-19T05:38:21;88312.44;;;-143.16;82.48
14885;BME280;7534;50.762;7.000;2023-02-19T05:40:48;88409.31;;;-143.16;82.09
14885;BME280;7534;50.762;7.000;2023-02-19T05:43:14;88370.97;;;-143.16;81.91
14885;BME280;7534;50.762;7.000;2023-02-19T05:45:40;88312.44;;;-143.16;82.44
14885;BME280;7534;50.762;7.000;2023-02-19T05:48:06;88270.03;;;-143.16;82.13
14885;BME280;7534;50.762;7.000;2023-02-19T05:50:35;88344.72;;;-143.16;82.47
14885;BME280;7534;50.762;7.000;2023-02-19T05:53:03;88379.03;;;-143.16;82.72
14885;BME280;7534;50.762;7.000;2023-02-19T05:55:34;88389.13;;;-143.16;82.90
14885;BME280;7534;50.762;7.000;2023-02-19T05:58:03;88340.69;;;-143.16;83.75
14885;BME280;7534;50.762;7.000;2023-02-19T06:00:31;88373.00;;;-143.16;84.48
14885;BME280;7534;50.762;7.000;2023-02-19T06:02:59;88320.50;;;-143.16;85.32
14885;BME280;7534;50.762;7.000;2023-02-19T06:05:25;88391.16;;;-143.16;85.35
14885;BME280;7534;50.762;7.000;2023-02-19T06:07:51;88385.09;;;-143.16;86.32
14885;BME280;7534;50.762;7.000;2023-02-19T06:10:16;88393.19;;;-143.16;87.07
14885;BME280;7534;50.762;7.000;2023-02-19T06:12:42;88443.66;;;-143.16;87.66
14885;BME280;7534;50.762;7.000;2023-02-19T06:15:09;88385.09;;;-143.16;88.22
14885;BME280;7534;50.762;7.000;2023-02-19T06:17:35;88393.19;;;-143.16;88.62
14885;BME280;7534;50.762;7.000;2023-02-19T06:20:01;88617.25;;;-143.16;88.48
14885;BME280;7534;50.762;7.000;2023-02-19T06:22:27;88373.00;;;-143.16;88.65
14885;BME280;7534;50.762;7.000;2023-02-19T06:24:53;88381.06;;;-143.16;88.74
14885;BME280;7534;50.762;7.000;2023-02-19T06:27:18;88308.38;;;-143.16;88.79
14885;BME280;7534;50.762;7.000;2023-02-19T06:29:44;88419.41;;;-143.16;88.96
14885;BME280;7534;50.762;7.000;2023-02-19T06:32:10;88255.91;;;-143.16;88.96
14885;BME280;7534;50.762;7.000;2023-02-19T06:34:36;88362.91;;;-143.16;88.89
14885;BME280;7534;50.762;7.000;2023-02-19T06:37:02;88611.22;;;-143.16;88.48
14885;BME280;7534;50.762;7.000;2023-02-19T06:39:27;88354.81;;;-143.16;88.30
14885;BME280;7534;50.762;7.000;2023-02-19T06:41:57;88284.16;;;-143.16;87.75
14885;BME280;7534;50.762;7.000;2023-02-19T06:44:25;88314.44;;;-143.16;87.93
14885;BME280;7534;50.762;7.000;2023-02-19T06:46:54;88379.03;;;-143.16;86.84
14885;BME280;7534;50.762;7.000;2023-02-19T06:49:20;88405.28;;;-143.16;86.96
14885;BME280;7534;50.762;7.000;2023-02-19T06:51:46;88322.53;;;-143.16;86.68
14885;BME280;7534;50.762;7.000;2023-02-19T06:54:14;88387.13;;;-143.16;86.23
14885;BME280;7534;50.762;7.000;2023-02-19T06:56:41;88427.50;;;-143.16;86.72
14885;BME280;7534;50.762;7.000;2023-02-19T06:59:11;88389.13;;;-143.16;86.87
14885;BME280;7534;50.762;7.000;2023-02-19T07:01:38;88419.41;;;-143.16;86.99
14885;BME280;7534;50.762;7.000;2023-02-19T07:04:06;88381.06;;;-143.16;86.03
14885;BME280;7534;50.762;7.000;2023-02-19T07:06:33;88421.44;;;-143.16;86.28
14885;BME280;7534;50.762;7.000;2023-02-19T07:09:03;88419.41;;;-143.16;85.96
14885;BME280;7534;50.762;7.000;2023-02-19T07:11:32;88411.34;;;-143.16;85.90
14885;BME280;7534;50.762;7.000;2023-02-19T07:14:01;88409.31;;;-143.16;85.44
14885;BME280;7534;50.762;7.000;2023-02-19T07:16:27;88405.28;;;-143.16;85.65
14885;BME280;7534;50.762;7.000;2023-02-19T07:18:58;88348.75;;;-143.16;85.53
14885;BME280;7534;50.762;7.000;2023-02-19T07:21:29;88405.28;;;-143.16;85.52
14885;BME280;7534;50.762;7.000;2023-02-19T07:27:14;88540.53;;;-143.16;86.13
14885;BME280;7534;50.762;7.000;2023-02-19T07:30:26;88342.72;;;-143.16;86.19
14885;BME280;7534;50.762;7.000;2023-02-19T07:33:06;88504.22;;;-143.16;86.29
14885;BME280;7534;50.762;7.000;2023-02-19T07:35:35;88171.13;;;-143.16;86.45
14885;BME280;7534;50.762;7.000;2023-02-19T07:38:38;88516.31;;;-143.16;86.71
14885;BME280;7534;50.762;7.000;2023-02-19T07:41:27;88383.09;;;-143.16;86.98
14885;BME280;7534;50.762;7.000;2023-02-19T07:43:53;88366.94;;;-143.16;87.07
14885;BME280;7534;50.762;7.000;2023-02-19T07:46:20;88395.19;;;-143.16;87.21
14885;BME280;7534;50.762;7.000;2023-02-19T07:48:58;88280.13;;;-143.16;87.27
14885;BME280;7534;50.762;7.000;2023-02-19T07:51:24;88354.81;;;-143.16;86.82
14885;BME280;7534;50.762;7.000;2023-02-19T07:53:51;88358.84;;;-143.16;87.42
14885;BME280;7534;50.762;7.000;2023-02-19T07:56:20;88298.28;;;-143.16;87.56
14885;BME280;7534;50.762;7.000;2023-02-19T07:58:48;88399.22;;;-143.16;87.46
14885;BME280;7534;50.762;7.000;2023-02-19T08:01:39;88397.22;;;-143.16;87.72
14885;BME280;7534;50.762;7.000;2023-02-19T08:04:24;88411.34;;;-143.16;87.57
14885;BME280;7534;50.762;7.000;2023-02-19T08:06:56;88116.63;;;-143.16;87.84
14885;BME280;7534;50.762;7.000;2023-02-19T08:09:38;88455.75;;;-143.16;87.31
14885;BME280;7534;50.762;7.000;2023-02-19T08:12:55;88544.59;;;-143.16;87.08
14885;BME280;7534;50.762;7.000;2023-02-19T08:15:46;88431.53;;;-143.16;86.93
14885;BME280;7534;50.762;7.000;2023-02-19T08:18:40;88532.47;;;-143.16;86.79
14885;BME280;7534;50.762;7.000;2023-02-19T08:21:12;88433.56;;;-143.16;86.76
14885;BME280;7534;50.762;7.000;2023-02-19T08:23:51;88479.97;;;-143.16;86.65
14885;BME280;7534;50.762;7.000;2023-02-19T08:26:20;88502.19;;;-143.16;86.04
14885;BME280;7534;50.762;7.000;2023-02-19T08:29:22;88405.28;;;-143.16;85.91
14885;BME280;7534;50.762;7.000;2023-02-19T08:31:50;88340.69;;;-143.16;85.12
